Terminal Aerodrome Forecast
Issued by NWS

Home | Current Version | Previous Version | Text Only | Print | Product List | Glossary On
Versions: 1 2 3 4 5 6 7 8 9 10 11 12 13 14 15 16
000
FTUS44 KLZK 211720
TAFADF
TAF
KADF 211720Z 2118/2218 17003KT P6SM SCT010 BKN100
     FM212100 18008KT P6SM VCTS BKN040CB
     FM220300 VRB03KT P6SM -RA BKN025 OVC040 PROB30 2203/2209 4SM
      TSRA BR BKN010CB
     FM220900 23004KT 4SM -RA BR BKN010
      TEMPO 2209/2212 2SM TSRA BR BKN005 OVC010CB
     FM221200 27010KT P6SM VCTS OVC030CB=

USA.gov is the U.S. government's official web portal to all federal, state and local government web resources and services.